Areia Branca, Brazil
Current Conditions -  °F | °C
As of 5:00 AM on Wednesday 22 Oct 2014 (Local Time) from SBAR Reporting Station
Scattered Clouds Scattered Clouds  
Wind Chill: 75°   Ceiling: Unl
Heat Index: 75°   Visibility: 6mi
Dew Point: 66°   Wind: 8mph
Humidity: 73%   Direction: 110°ESE
Pressure: 29.94"   Gusts: NA
Location:  10.76°S, 37.32°W
Report Text: SBAR 220800Z 11007KT 9999 SCT015 24/19 Q1014
Loading
Personal Weather Stations






























Interactive Weather Map
Tropical Storm Tracking
New forecast layout! Learn more

10-Day Weather Forecast

Advertisements
Track Severe Weather on mobile